sensor_id;sensor_type;location;lat;lon;timestamp;pressure;altitude;pressure_sealevel;temperature;humidity
37878;BME280;23715;53.652;8.516;2023-05-12T00:02:51;101932.02;;;13.79;100.00
37878;BME280;23715;53.652;8.516;2023-05-12T00:07:52;101922.59;;;13.62;100.00
37878;BME280;23715;53.652;8.516;2023-05-12T00:12:52;101923.61;;;13.44;100.00
37878;BME280;23715;53.652;8.516;2023-05-12T00:17:53;101934.30;;;13.51;100.00
37878;BME280;23715;53.652;8.516;2023-05-12T00:22:53;101932.94;;;13.57;100.00
37878;BME280;23715;53.652;8.516;2023-05-12T00:27:54;101927.89;;;13.46;100.00
37878;BME280;23715;53.652;8.516;2023-05-12T00:32:54;101927.89;;;13.46;100.00
37878;BME280;23715;53.652;8.516;2023-05-12T00:37:55;101927.43;;;13.41;100.00
37878;BME280;23715;53.652;8.516;2023-05-12T00:42:55;101925.69;;;13.52;100.00
37878;BME280;23715;53.652;8.516;2023-05-12T00:47:56;101930.12;;;13.53;100.00
37878;BME280;23715;53.652;8.516;2023-05-12T00:52:59;101921.30;;;13.39;100.00
37878;BME280;23715;53.652;8.516;2023-05-12T00:58:00;101930.59;;;13.46;100.00
37878;BME280;23715;53.652;8.516;2023-05-12T01:03:00;101924.73;;;13.41;100.00
37878;BME280;23715;53.652;8.516;2023-05-12T01:08:02;101930.56;;;13.69;100.00
37878;BME280;23715;53.652;8.516;2023-05-12T01:13:03;101941.23;;;13.88;100.00
37878;BME280;23715;53.652;8.516;2023-05-12T01:18:05;101943.55;;;13.86;100.00
37878;BME280;23715;53.652;8.516;2023-05-12T01:23:06;101945.25;;;13.99;100.00
37878;BME280;23715;53.652;8.516;2023-05-12T01:28:07;101963.74;;;14.20;100.00
37878;BME280;23715;53.652;8.516;2023-05-12T01:33:09;101958.45;;;14.19;100.00
37878;BME280;23715;53.652;8.516;2023-05-12T01:38:09;101948.16;;;14.13;100.00
37878;BME280;23715;53.652;8.516;2023-05-12T01:43:12;101950.23;;;14.15;100.00
37878;BME280;23715;53.652;8.516;2023-05-12T01:48:12;101946.34;;;14.08;100.00
37878;BME280;23715;53.652;8.516;2023-05-12T01:53:13;101951.70;;;14.13;100.00
37878;BME280;23715;53.652;8.516;2023-05-12T01:58:13;101951.70;;;14.13;100.00
37878;BME280;23715;53.652;8.516;2023-05-12T02:03:13;101968.18;;;14.21;100.00
37878;BME280;23715;53.652;8.516;2023-05-12T02:08:14;101970.05;;;14.15;100.00
37878;BME280;23715;53.652;8.516;2023-05-12T02:13:14;101954.31;;;14.09;100.00
37878;BME280;23715;53.652;8.516;2023-05-12T02:18:16;101967.70;;;14.16;100.00
37878;BME280;23715;53.652;8.516;2023-05-12T02:23:18;101984.52;;;14.25;100.00
37878;BME280;23715;53.652;8.516;2023-05-12T02:28:19;101990.64;;;14.33;100.00
37878;BME280;23715;53.652;8.516;2023-05-12T02:33:20;101995.93;;;14.35;100.00
37878;BME280;23715;53.652;8.516;2023-05-12T02:38:22;101993.22;;;14.35;100.00
37878;BME280;23715;53.652;8.516;2023-05-12T02:43:23;101993.45;;;14.37;100.00
37878;BME280;23715;53.652;8.516;2023-05-12T02:48:25;101995.48;;;14.51;100.00
37878;BME280;23715;53.652;8.516;2023-05-12T02:53:25;101986.03;;;14.45;100.00
37878;BME280;23715;53.652;8.516;2023-05-12T02:58:26;101988.34;;;14.55;100.00
37878;BME280;23715;53.652;8.516;2023-05-12T03:03:26;101983.18;;;14.52;100.00
37878;BME280;23715;53.652;8.516;2023-05-12T03:08:28;101973.70;;;14.52;100.00
37878;BME280;23715;53.652;8.516;2023-05-12T03:13:29;101984.16;;;14.51;100.00
37878;BME280;23715;53.652;8.516;2023-05-12T03:18:29;101984.28;;;14.55;100.00
37878;BME280;23715;53.652;8.516;2023-05-12T03:23:29;101979.34;;;14.60;100.00
37878;BME280;23715;53.652;8.516;2023-05-12T03:28:30;101976.92;;;14.52;100.00
37878;BME280;23715;53.652;8.516;2023-05-12T03:33:29;101977.19;;;14.43;100.00
37878;BME280;23715;53.652;8.516;2023-05-12T03:38:30;101988.74;;;14.45;100.00
37878;BME280;23715;53.652;8.516;2023-05-12T03:43:29;101985.27;;;14.54;100.00
37878;BME280;23715;53.652;8.516;2023-05-12T03:48:30;101984.63;;;14.56;100.00
37878;BME280;23715;53.652;8.516;2023-05-12T03:53:30;101995.11;;;14.55;100.00
37878;BME280;23715;53.652;8.516;2023-05-12T03:58:30;101999.52;;;14.56;100.00
37878;BME280;23715;53.652;8.516;2023-05-12T04:03:31;101998.80;;;14.54;100.00
37878;BME280;23715;53.652;8.516;2023-05-12T04:08:31;102002.52;;;14.59;100.00
37878;BME280;23715;53.652;8.516;2023-05-12T04:13:31;102003.99;;;14.57;100.00
37878;BME280;23715;53.652;8.516;2023-05-12T04:18:31;102003.47;;;14.63;100.00
37878;BME280;23715;53.652;8.516;2023-05-12T04:23:31;101997.82;;;14.55;100.00
37878;BME280;23715;53.652;8.516;2023-05-12T04:28:31;102005.08;;;14.49;100.00
37878;BME280;23715;53.652;8.516;2023-05-12T04:33:32;102018.14;;;14.50;100.00
37878;BME280;23715;53.652;8.516;2023-05-12T04:38:33;102024.28;;;14.52;100.00
37878;BME280;23715;53.652;8.516;2023-05-12T04:43:33;102022.67;;;14.49;100.00
37878;BME280;23715;53.652;8.516;2023-05-12T04:48:34;102031.52;;;14.51;100.00
37878;BME280;23715;53.652;8.516;2023-05-12T04:53:36;102038.30;;;14.57;100.00
37878;BME280;23715;53.652;8.516;2023-05-12T04:58:36;102047.52;;;14.54;100.00
37878;BME280;23715;53.652;8.516;2023-05-12T05:03:40;102046.16;;;14.54;100.00
37878;BME280;23715;53.652;8.516;2023-05-12T05:08:41;102052.16;;;14.75;100.00
37878;BME280;23715;53.652;8.516;2023-05-12T05:13:41;102044.13;;;14.79;100.00
37878;BME280;23715;53.652;8.516;2023-05-12T05:18:42;102041.73;;;14.70;100.00
37878;BME280;23715;53.652;8.516;2023-05-12T05:23:44;102044.03;;;14.75;100.00
37878;BME280;23715;53.652;8.516;2023-05-12T05:28:45;102049.55;;;14.79;100.00
37878;BME280;23715;53.652;8.516;2023-05-12T05:33:46;102060.86;;;14.84;100.00
37878;BME280;23715;53.652;8.516;2023-05-12T05:38:47;102070.53;;;14.92;100.00
37878;BME280;23715;53.652;8.516;2023-05-12T05:43:48;102071.26;;;14.94;100.00
37878;BME280;23715;53.652;8.516;2023-05-12T05:48:47;102061.88;;;14.98;100.00
37878;BME280;23715;53.652;8.516;2023-05-12T05:53:48;102072.18;;;15.10;100.00
37878;BME280;23715;53.652;8.516;2023-05-12T05:58:49;102081.06;;;15.07;100.00
37878;BME280;23715;53.652;8.516;2023-05-12T06:03:50;102072.02;;;15.12;100.00
37878;BME280;23715;53.652;8.516;2023-05-12T06:08:56;102079.36;;;15.21;100.00
37878;BME280;23715;53.652;8.516;2023-05-12T06:13:55;102079.20;;;15.28;100.00
37878;BME280;23715;53.652;8.516;2023-05-12T06:18:57;102087.68;;;15.35;100.00
37878;BME280;23715;53.652;8.516;2023-05-12T06:24:03;102100.16;;;15.47;100.00
37878;BME280;23715;53.652;8.516;2023-05-12T06:28:59;102099.23;;;15.58;100.00
37878;BME280;23715;53.652;8.516;2023-05-12T06:34:00;102096.64;;;15.77;100.00
37878;BME280;23715;53.652;8.516;2023-05-12T06:39:01;102100.48;;;15.90;100.00
37878;BME280;23715;53.652;8.516;2023-05-12T06:44:02;102100.48;;;15.90;100.00
37878;BME280;23715;53.652;8.516;2023-05-12T06:49:04;102103.58;;;16.01;100.00
37878;BME280;23715;53.652;8.516;2023-05-12T06:54:06;102113.09;;;16.16;100.00
37878;BME280;23715;53.652;8.516;2023-05-12T06:59:07;102110.59;;;16.19;100.00
37878;BME280;23715;53.652;8.516;2023-05-12T07:04:07;102109.20;;;16.34;100.00
37878;BME280;23715;53.652;8.516;2023-05-12T07:09:06;102116.58;;;16.38;100.00
37878;BME280;23715;53.652;8.516;2023-05-12T07:14:06;102106.95;;;16.49;100.00
37878;BME280;23715;53.652;8.516;2023-05-12T07:19:07;102105.27;;;16.58;100.00
37878;BME280;23715;53.652;8.516;2023-05-12T07:24:07;102099.98;;;16.76;100.00
37878;BME280;23715;53.652;8.516;2023-05-12T07:29:08;102094.64;;;17.00;100.00
37878;BME280;23715;53.652;8.516;2023-05-12T07:34:09;102088.91;;;16.73;100.00
37878;BME280;23715;53.652;8.516;2023-05-12T07:39:09;102080.72;;;16.98;100.00
37878;BME280;23715;53.652;8.516;2023-05-12T07:44:10;102080.04;;;17.20;100.00
37878;BME280;23715;53.652;8.516;2023-05-12T07:49:11;102077.75;;;17.49;100.00
37878;BME280;23715;53.652;8.516;2023-05-12T07:54:11;102076.59;;;17.61;100.00
37878;BME280;23715;53.652;8.516;2023-05-12T07:59:11;102069.50;;;17.64;100.00
37878;BME280;23715;53.652;8.516;2023-05-12T08:04:12;102077.06;;;17.70;100.00
37878;BME280;23715;53.652;8.516;2023-05-12T08:09:12;102071.16;;;17.75;100.00
37878;BME280;23715;53.652;8.516;2023-05-12T08:14:12;102073.58;;;18.02;100.00
37878;BME280;23715;53.652;8.516;2023-05-12T08:19:13;102067.42;;;18.13;100.00
37878;BME280;23715;53.652;8.516;2023-05-12T08:24:16;102074.53;;;18.24;100.00
37878;BME280;23715;53.652;8.516;2023-05-12T08:29:16;102075.05;;;18.24;100.00
37878;BME280;23715;53.652;8.516;2023-05-12T08:34:17;102078.59;;;18.38;100.00
37878;BME280;23715;53.652;8.516;2023-05-12T08:39:17;102071.20;;;18.44;100.00
37878;BME280;23715;53.652;8.516;2023-05-12T08:44:18;102073.52;;;18.57;100.00
37878;BME280;23715;53.652;8.516;2023-05-12T08:49:20;102075.57;;;18.73;100.00
37878;BME280;23715;53.652;8.516;2023-05-12T08:54:21;102091.64;;;18.94;100.00
37878;BME280;23715;53.652;8.516;2023-05-12T08:59:24;102093.84;;;18.95;100.00
37878;BME280;23715;53.652;8.516;2023-05-12T09:04:25;102089.52;;;19.06;100.00
37878;BME280;23715;53.652;8.516;2023-05-12T09:09:27;102091.45;;;19.14;100.00
37878;BME280;23715;53.652;8.516;2023-05-12T09:14:30;102093.66;;;19.14;100.00
37878;BME280;23715;53.652;8.516;2023-05-12T09:19:32;102102.38;;;19.18;100.00
37878;BME280;23715;53.652;8.516;2023-05-12T09:24:37;102103.86;;;19.30;100.00
37878;BME280;23715;53.652;8.516;2023-05-12T09:29:48;102103.06;;;19.38;100.00
37878;BME280;23715;53.652;8.516;2023-05-12T09:34:49;102113.12;;;19.37;100.00
37878;BME280;23715;53.652;8.516;2023-05-12T09:39:57;102109.73;;;19.39;100.00
37878;BME280;23715;53.652;8.516;2023-05-12T09:45:05;102113.25;;;19.58;100.00
37878;BME280;23715;53.652;8.516;2023-05-12T09:50:08;102112.20;;;19.77;100.00
37878;BME280;23715;53.652;8.516;2023-05-12T09:55:10;102109.27;;;20.00;100.00
37878;BME280;23715;53.652;8.516;2023-05-12T10:00:12;102110.38;;;20.20;100.00
37878;BME280;23715;53.652;8.516;2023-05-12T10:05:18;102115.61;;;20.52;100.00
37878;BME280;23715;53.652;8.516;2023-05-12T10:10:20;102105.36;;;20.54;100.00
37878;BME280;23715;53.652;8.516;2023-05-12T10:15:21;102093.78;;;20.60;100.00
37878;BME280;23715;53.652;8.516;2023-05-12T10:20:24;102093.83;;;20.76;100.00
37878;BME280;23715;53.652;8.516;2023-05-12T10:25:27;102097.23;;;20.78;100.00
37878;BME280;23715;53.652;8.516;2023-05-12T10:30:28;102097.09;;;21.09;100.00
37878;BME280;23715;53.652;8.516;2023-05-12T10:35:36;102098.98;;;21.08;100.00
37878;BME280;23715;53.652;8.516;2023-05-12T10:46:17;102102.58;;;21.21;100.00
37878;BME280;23715;53.652;8.516;2023-05-12T10:51:20;102095.55;;;21.31;100.00
37878;BME280;23715;53.652;8.516;2023-05-12T10:56:28;102097.08;;;21.45;100.00
37878;BME280;23715;53.652;8.516;2023-05-12T11:01:24;102093.98;;;21.65;100.00
37878;BME280;23715;53.652;8.516;2023-05-12T11:06:23;102101.34;;;21.60;100.00
37878;BME280;23715;53.652;8.516;2023-05-12T11:11:25;102097.95;;;21.21;100.00
37878;BME280;23715;53.652;8.516;2023-05-12T11:16:27;102096.05;;;21.51;100.00
37878;BME280;23715;53.652;8.516;2023-05-12T11:21:28;102087.58;;;21.93;100.00
37878;BME280;23715;53.652;8.516;2023-05-12T11:26:29;102088.86;;;22.10;100.00
37878;BME280;23715;53.652;8.516;2023-05-12T11:31:29;102084.55;;;22.15;100.00
37878;BME280;23715;53.652;8.516;2023-05-12T11:36:34;102089.84;;;22.25;100.00
37878;BME280;23715;53.652;8.516;2023-05-12T11:41:30;102085.70;;;22.33;100.00
37878;BME280;23715;53.652;8.516;2023-05-12T11:46:30;102089.78;;;22.65;100.00
37878;BME280;23715;53.652;8.516;2023-05-12T11:51:31;102083.03;;;22.75;100.00
37878;BME280;23715;53.652;8.516;2023-05-12T11:56:31;102086.16;;;22.68;100.00
37878;BME280;23715;53.652;8.516;2023-05-12T12:01:31;102092.53;;;22.37;100.00
37878;BME280;23715;53.652;8.516;2023-05-12T12:06:41;102087.92;;;22.61;100.00
37878;BME280;23715;53.652;8.516;2023-05-12T12:11:36;102096.01;;;22.81;100.00
37878;BME280;23715;53.652;8.516;2023-05-12T12:16:36;102103.03;;;22.57;100.00
37878;BME280;23715;53.652;8.516;2023-05-12T12:21:36;102105.56;;;22.35;100.00
37878;BME280;23715;53.652;8.516;2023-05-12T12:26:37;102109.68;;;22.23;100.00
37878;BME280;23715;53.652;8.516;2023-05-12T12:31:37;102104.77;;;22.14;100.00
37878;BME280;23715;53.652;8.516;2023-05-12T12:36:36;102100.95;;;22.59;100.00
37878;BME280;23715;53.652;8.516;2023-05-12T12:41:37;102099.42;;;22.84;100.00
37878;BME280;23715;53.652;8.516;2023-05-12T12:46:37;102097.16;;;22.64;100.00
37878;BME280;23715;53.652;8.516;2023-05-12T12:51:37;102097.92;;;22.50;100.00
37878;BME280;23715;53.652;8.516;2023-05-12T12:56:38;102100.47;;;22.20;100.00
37878;BME280;23715;53.652;8.516;2023-05-12T13:01:39;102098.08;;;22.17;100.00
37878;BME280;23715;53.652;8.516;2023-05-12T13:06:38;102099.52;;;22.05;100.00
37878;BME280;23715;53.652;8.516;2023-05-12T13:11:39;102097.14;;;22.41;100.00
37878;BME280;23715;53.652;8.516;2023-05-12T13:16:39;102084.44;;;22.94;100.00
37878;BME280;23715;53.652;8.516;2023-05-12T13:21:39;102082.21;;;23.36;100.00
37878;BME280;23715;53.652;8.516;2023-05-12T13:26:40;102082.80;;;23.61;100.00
37878;BME280;23715;53.652;8.516;2023-05-12T13:31:41;102078.61;;;23.50;100.00
37878;BME280;23715;53.652;8.516;2023-05-12T13:36:41;102078.00;;;23.44;100.00
37878;BME280;23715;53.652;8.516;2023-05-12T13:41:41;102081.45;;;23.42;98.52
37878;BME280;23715;53.652;8.516;2023-05-12T13:46:41;102075.73;;;23.48;100.00
37878;BME280;23715;53.652;8.516;2023-05-12T13:51:41;102080.64;;;23.71;95.79
37878;BME280;23715;53.652;8.516;2023-05-12T13:56:41;102082.47;;;23.75;95.88
37878;BME280;23715;53.652;8.516;2023-05-12T14:01:42;102084.03;;;23.25;89.96
37878;BME280;23715;53.652;8.516;2023-05-12T14:06:45;102083.36;;;23.42;99.72
37878;BME280;23715;53.652;8.516;2023-05-12T14:11:44;102070.58;;;23.64;100.00
37878;BME280;23715;53.652;8.516;2023-05-12T14:16:45;102077.44;;;23.64;93.51
37878;BME280;23715;53.652;8.516;2023-05-12T14:21:45;102080.23;;;23.59;97.03
37878;BME280;23715;53.652;8.516;2023-05-12T14:26:45;102069.92;;;23.76;100.00
37878;BME280;23715;53.652;8.516;2023-05-12T14:31:46;102075.75;;;23.63;94.48
37878;BME280;23715;53.652;8.516;2023-05-12T14:36:46;102078.03;;;23.74;100.00
37878;BME280;23715;53.652;8.516;2023-05-12T14:41:46;102079.05;;;23.73;96.39
37878;BME280;23715;53.652;8.516;2023-05-12T14:46:46;102076.78;;;23.76;99.35
37878;BME280;23715;53.652;8.516;2023-05-12T14:51:47;102079.64;;;23.68;86.72
37878;BME280;23715;53.652;8.516;2023-05-12T14:56:48;102076.06;;;23.64;90.99
37878;BME280;23715;53.652;8.516;2023-05-12T15:01:48;102081.95;;;23.61;84.66
37878;BME280;23715;53.652;8.516;2023-05-12T15:06:48;102085.48;;;23.50;85.07
37878;BME280;23715;53.652;8.516;2023-05-12T15:11:49;102099.83;;;23.04;83.84
37878;BME280;23715;53.652;8.516;2023-05-12T15:16:49;102104.70;;;23.16;79.15
37878;BME280;23715;53.652;8.516;2023-05-12T15:21:55;102114.92;;;23.23;75.90
37878;BME280;23715;53.652;8.516;2023-05-12T15:26:56;102112.45;;;23.32;77.62
37878;BME280;23715;53.652;8.516;2023-05-12T15:31:57;102114.35;;;23.46;76.64
37878;BME280;23715;53.652;8.516;2023-05-12T15:36:57;102115.59;;;23.44;70.38
37878;BME280;23715;53.652;8.516;2023-05-12T15:41:57;102116.98;;;23.58;74.70
37878;BME280;23715;53.652;8.516;2023-05-12T15:46:58;102121.16;;;23.54;72.36
37878;BME280;23715;53.652;8.516;2023-05-12T15:51:58;102117.93;;;23.51;72.31
37878;BME280;23715;53.652;8.516;2023-05-12T15:56:58;102123.96;;;23.46;72.63
37878;BME280;23715;53.652;8.516;2023-05-12T16:01:59;102119.13;;;23.48;70.87
37878;BME280;23715;53.652;8.516;2023-05-12T16:06:59;102122.94;;;23.28;67.96
37878;BME280;23715;53.652;8.516;2023-05-12T16:11:59;102115.41;;;23.26;67.46
37878;BME280;23715;53.652;8.516;2023-05-12T16:16:59;102124.45;;;23.31;62.04
37878;BME280;23715;53.652;8.516;2023-05-12T16:22:00;102126.66;;;23.35;64.76
37878;BME280;23715;53.652;8.516;2023-05-12T16:26:59;102122.19;;;23.53;68.79
37878;BME280;23715;53.652;8.516;2023-05-12T16:31:59;102127.11;;;23.39;61.76
37878;BME280;23715;53.652;8.516;2023-05-12T16:37:00;102122.41;;;23.29;61.92
37878;BME280;23715;53.652;8.516;2023-05-12T16:41:59;102118.34;;;23.25;64.72
37878;BME280;23715;53.652;8.516;2023-05-12T16:46:59;102122.09;;;23.28;62.38
37878;BME280;23715;53.652;8.516;2023-05-12T16:52:00;102121.70;;;23.31;65.54
37878;BME280;23715;53.652;8.516;2023-05-12T16:57:00;102118.96;;;23.31;66.19
37878;BME280;23715;53.652;8.516;2023-05-12T17:02:01;102119.41;;;23.19;66.34
37878;BME280;23715;53.652;8.516;2023-05-12T17:07:02;102121.48;;;23.17;70.56
37878;BME280;23715;53.652;8.516;2023-05-12T17:12:01;102112.48;;;23.05;70.87
37878;BME280;23715;53.652;8.516;2023-05-12T17:17:02;102117.48;;;22.97;71.20
37878;BME280;23715;53.652;8.516;2023-05-12T17:22:02;102119.81;;;22.85;74.75
37878;BME280;23715;53.652;8.516;2023-05-12T17:27:03;102122.80;;;22.75;78.38
37878;BME280;23715;53.652;8.516;2023-05-12T17:32:03;102124.70;;;22.75;80.79
37878;BME280;23715;53.652;8.516;2023-05-12T17:37:06;102121.81;;;22.68;82.56
37878;BME280;23715;53.652;8.516;2023-05-12T17:42:06;102124.23;;;22.63;85.55
37878;BME280;23715;53.652;8.516;2023-05-12T17:47:07;102124.37;;;22.38;87.82
37878;BME280;23715;53.652;8.516;2023-05-12T17:52:09;102127.19;;;22.26;90.39
37878;BME280;23715;53.652;8.516;2023-05-12T17:57:09;102131.30;;;22.26;92.11
37878;BME280;23715;53.652;8.516;2023-05-12T18:02:09;102123.43;;;22.15;92.98
37878;BME280;23715;53.652;8.516;2023-05-12T18:07:11;102126.48;;;22.24;94.21
37878;BME280;23715;53.652;8.516;2023-05-12T18:12:11;102137.12;;;22.15;94.68
37878;BME280;23715;53.652;8.516;2023-05-12T18:17:12;102131.98;;;22.12;94.86
37878;BME280;23715;53.652;8.516;2023-05-12T18:22:12;102140.28;;;21.87;98.73
37878;BME280;23715;53.652;8.516;2023-05-12T18:27:14;102148.91;;;21.63;99.14
37878;BME280;23715;53.652;8.516;2023-05-12T18:32:14;102155.57;;;21.40;100.00
37878;BME280;23715;53.652;8.516;2023-05-12T18:37:17;102154.36;;;21.26;99.72
37878;BME280;23715;53.652;8.516;2023-05-12T18:42:21;102163.25;;;21.08;100.00
37878;BME280;23715;53.652;8.516;2023-05-12T18:47:21;102161.86;;;20.96;100.00
37878;BME280;23715;53.652;8.516;2023-05-12T18:52:21;102166.95;;;20.74;100.00
37878;BME280;23715;53.652;8.516;2023-05-12T18:57:21;102165.48;;;20.54;100.00
37878;BME280;23715;53.652;8.516;2023-05-12T19:02:21;102172.92;;;20.35;100.00
37878;BME280;23715;53.652;8.516;2023-05-12T19:07:21;102176.69;;;20.34;100.00
37878;BME280;23715;53.652;8.516;2023-05-12T19:12:21;102185.73;;;20.00;100.00
37878;BME280;23715;53.652;8.516;2023-05-12T19:17:21;102187.92;;;19.97;100.00
37878;BME280;23715;53.652;8.516;2023-05-12T19:22:21;102193.16;;;19.68;100.00
37878;BME280;23715;53.652;8.516;2023-05-12T19:27:23;102199.12;;;19.45;100.00
37878;BME280;23715;53.652;8.516;2023-05-12T19:32:25;102210.90;;;19.28;100.00
37878;BME280;23715;53.652;8.516;2023-05-12T19:37:25;102213.34;;;19.17;100.00
37878;BME280;23715;53.652;8.516;2023-05-12T19:42:25;102224.77;;;19.17;100.00
37878;BME280;23715;53.652;8.516;2023-05-12T19:47:26;102229.52;;;19.01;100.00
37878;BME280;23715;53.652;8.516;2023-05-12T19:52:27;102229.44;;;18.92;100.00
37878;BME280;23715;53.652;8.516;2023-05-12T19:57:30;102233.45;;;18.84;100.00
37878;BME280;23715;53.652;8.516;2023-05-12T20:02:31;102232.55;;;18.70;100.00
37878;BME280;23715;53.652;8.516;2023-05-12T20:07:31;102241.25;;;18.56;100.00
37878;BME280;23715;53.652;8.516;2023-05-12T20:12:31;102243.45;;;18.42;100.00
37878;BME280;23715;53.652;8.516;2023-05-12T20:17:31;102246.84;;;18.54;100.00
37878;BME280;23715;53.652;8.516;2023-05-12T20:22:32;102252.58;;;18.51;100.00
37878;BME280;23715;53.652;8.516;2023-05-12T20:27:32;102249.42;;;18.56;100.00
37878;BME280;23715;53.652;8.516;2023-05-12T20:32:32;102252.38;;;18.48;100.00
37878;BME280;23715;53.652;8.516;2023-05-12T20:37:33;102249.37;;;18.28;100.00
37878;BME280;23715;53.652;8.516;2023-05-12T20:42:33;102254.11;;;18.26;100.00
37878;BME280;23715;53.652;8.516;2023-05-12T20:47:33;102257.60;;;18.08;100.00
37878;BME280;23715;53.652;8.516;2023-05-12T20:52:39;102264.41;;;18.08;100.00
37878;BME280;23715;53.652;8.516;2023-05-12T20:57:39;102264.93;;;17.88;100.00
37878;BME280;23715;53.652;8.516;2023-05-12T21:02:40;102269.00;;;17.69;100.00
37878;BME280;23715;53.652;8.516;2023-05-12T21:07:40;102267.78;;;17.67;100.00
37878;BME280;23715;53.652;8.516;2023-05-12T21:12:40;102267.27;;;17.68;100.00
37878;BME280;23715;53.652;8.516;2023-05-12T21:17:41;102270.95;;;17.63;100.00
37878;BME280;23715;53.652;8.516;2023-05-12T21:22:41;102270.45;;;17.53;100.00
37878;BME280;23715;53.652;8.516;2023-05-12T21:27:41;102280.61;;;17.42;100.00
37878;BME280;23715;53.652;8.516;2023-05-12T21:32:41;102281.02;;;17.47;100.00
37878;BME280;23715;53.652;8.516;2023-05-12T21:37:42;102280.67;;;17.36;100.00
37878;BME280;23715;53.652;8.516;2023-05-12T21:42:43;102293.41;;;17.01;100.00
37878;BME280;23715;53.652;8.516;2023-05-12T21:47:43;102294.31;;;16.95;100.00
37878;BME280;23715;53.652;8.516;2023-05-12T21:52:44;102295.48;;;17.03;100.00
37878;BME280;23715;53.652;8.516;2023-05-12T21:57:46;102292.17;;;16.99;100.00
37878;BME280;23715;53.652;8.516;2023-05-12T22:02:46;102292.73;;;16.93;100.00
37878;BME280;23715;53.652;8.516;2023-05-12T22:07:47;102293.70;;;16.82;100.00
37878;BME280;23715;53.652;8.516;2023-05-12T22:12:47;102290.87;;;16.63;100.00
37878;BME280;23715;53.652;8.516;2023-05-12T22:17:47;102291.22;;;16.64;100.00
37878;BME280;23715;53.652;8.516;2023-05-12T22:22:48;102294.05;;;16.68;100.00
37878;BME280;23715;53.652;8.516;2023-05-12T22:27:48;102291.01;;;16.61;100.00
37878;BME280;23715;53.652;8.516;2023-05-12T22:32:48;102297.76;;;16.51;100.00
37878;BME280;23715;53.652;8.516;2023-05-12T22:37:49;102294.66;;;16.50;100.00
37878;BME280;23715;53.652;8.516;2023-05-12T22:42:49;102313.14;;;16.20;100.00
37878;BME280;23715;53.652;8.516;2023-05-12T22:47:50;102306.70;;;16.27;100.00
37878;BME280;23715;53.652;8.516;2023-05-12T22:52:55;102309.54;;;16.25;100.00
37878;BME280;23715;53.652;8.516;2023-05-12T22:57:53;102309.41;;;16.27;100.00
37878;BME280;23715;53.652;8.516;2023-05-12T23:02:53;102306.89;;;16.14;100.00
37878;BME280;23715;53.652;8.516;2023-05-12T23:07:54;102302.57;;;16.17;100.00
37878;BME280;23715;53.652;8.516;2023-05-12T23:12:55;102310.81;;;16.00;100.00
37878;BME280;23715;53.652;8.516;2023-05-12T23:17:55;102315.98;;;15.71;100.00
37878;BME280;23715;53.652;8.516;2023-05-12T23:22:55;102316.15;;;15.58;100.00
37878;BME280;23715;53.652;8.516;2023-05-12T23:27:55;102316.15;;;15.58;100.00
37878;BME280;23715;53.652;8.516;2023-05-12T23:32:56;102315.80;;;15.46;100.00
37878;BME280;23715;53.652;8.516;2023-05-12T23:37:56;102313.59;;;15.45;100.00
37878;BME280;23715;53.652;8.516;2023-05-12T23:42:56;102310.92;;;15.34;100.00
37878;BME280;23715;53.652;8.516;2023-05-12T23:47:57;102311.94;;;15.27;100.00
37878;BME280;23715;53.652;8.516;2023-05-12T23:52:57;102308.11;;;15.24;100.00
37878;BME280;23715;53.652;8.516;2023-05-12T23:57:57;102309.09;;;15.23;100.00
